Time;durP1;ratioP1;P1;durP2;ratioP2;P2;SDS_P1;SDS_P2;PMS_P1;PMS_P2;Temp;Humidity;BMP_temperature;BMP_pressure;BME280_temperature;BME280_humidity;BME280_pressure;Samples;Min_cycle;Max_cycle;Signal;HPM_P1;HPM_P2
2022/04/09 00:02:47;;;;;;;4.17;3.10;;;10.30;97.00;;;;;;6265350;28;20184;-65
2022/04/09 00:05:48;;;;;;;5.53;3.53;;;10.30;97.00;;;;;;6265087;28;20201;-64
2022/04/09 00:08:49;;;;;;;4.13;3.47;;;10.30;97.00;;;;;;6315726;28;20223;-64
2022/04/09 00:11:50;;;;;;;3.93;3.07;;;10.30;97.00;;;;;;6281652;28;20191;-64
2022/04/09 00:14:51;;;;;;;7.00;3.67;;;10.30;97.00;;;;;;6273040;28;20202;-63
2022/04/09 00:17:51;;;;;;;4.50;3.40;;;10.30;97.10;;;;;;6264914;28;20195;-63
2022/04/09 00:20:52;;;;;;;4.27;3.30;;;10.30;97.10;;;;;;6281420;28;20177;-63
2022/04/09 00:23:53;;;;;;;6.70;3.57;;;10.20;97.00;;;;;;6264070;28;20196;-63
2022/04/09 00:26:54;;;;;;;4.77;3.47;;;10.10;97.10;;;;;;6285222;28;20256;-64
2022/04/09 00:29:55;;;;;;;3.60;2.47;;;10.10;97.10;;;;;;6272912;28;20238;-64
2022/04/09 00:32:56;;;;;;;5.57;2.90;;;10.00;97.10;;;;;;6305075;28;20186;-64
2022/04/09 00:35:57;;;;;;;5.30;2.10;;;10.00;97.10;;;;;;6299555;28;20180;-64
2022/04/09 00:38:58;;;;;;;4.03;2.30;;;9.90;97.10;;;;;;6264549;28;20185;-64
2022/04/09 00:41:59;;;;;;;3.57;2.00;;;9.90;97.10;;;;;;6264952;28;20258;-64
2022/04/09 00:44:59;;;;;;;3.07;2.07;;;9.90;97.10;;;;;;6265000;28;20181;-67
2022/04/09 00:48:01;;;;;;;2.80;1.90;;;9.90;97.10;;;;;;6279463;28;20203;-67
2022/04/09 00:51:01;;;;;;;2.53;1.70;;;9.80;97.10;;;;;;6261950;28;20213;-67
2022/04/09 00:54:05;;;;;;;3.50;1.70;;;9.90;97.10;;;;;;6277834;28;20185;-67
2022/04/09 00:57:07;;;;;;;2.70;1.40;;;9.90;97.10;;;;;;6281341;28;20241;-67
2022/04/09 01:00:09;;;;;;;2.60;1.57;;;9.90;97.10;;;;;;6289331;28;20207;-67
2022/04/09 01:03:12;;;;;;;4.43;1.47;;;9.90;97.10;;;;;;6294211;28;20285;-67
2022/04/09 01:06:13;;;;;;;2.73;1.50;;;9.90;97.10;;;;;;6280726;28;20192;-67
2022/04/09 01:09:14;;;;;;;6.00;1.67;;;9.90;97.20;;;;;;6300161;28;20207;-67
2022/04/09 01:12:17;;;;;;;2.73;1.50;;;9.80;97.20;;;;;;6290662;28;20280;-67
2022/04/09 01:15:19;;;;;;;2.97;1.53;;;9.90;97.20;;;;;;6290425;28;20212;-66
2022/04/09 01:18:20;;;;;;;1.30;1.20;;;9.80;97.20;;;;;;6289779;28;20202;-67
2022/04/09 01:21:40;;;;;;;2.30;1.90;;;9.80;97.20;;;;;;6282347;28;20208;-64
2022/04/09 01:24:41;;;;;;;2.57;1.43;;;9.80;97.20;;;;;;6276656;28;20185;-63
2022/04/09 01:27:43;;;;;;;1.80;1.50;;;9.70;97.20;;;;;;6285122;28;20204;-63
2022/04/09 01:30:45;;;;;;;2.80;1.50;;;9.60;97.20;;;;;;6260340;28;20236;-63
2022/04/09 01:33:47;;;;;;;3.67;1.40;;;9.60;97.20;;;;;;6294167;28;20188;-63
2022/04/09 01:36:48;;;;;;;2.23;1.57;;;9.50;97.30;;;;;;6284615;28;20191;-63
2022/04/09 01:39:49;;;;;;;2.80;1.60;;;9.50;97.20;;;;;;6268583;28;20192;-64
2022/04/09 01:42:51;;;;;;;2.90;1.70;;;9.40;97.30;;;;;;6268957;28;20192;-65
2022/04/09 01:45:52;;;;;;;2.10;1.60;;;9.50;97.30;;;;;;6268691;28;20330;-65
2022/04/09 01:48:55;;;;;;;1.73;1.60;;;9.50;97.30;;;;;;6269209;28;20209;-65
2022/04/09 01:51:56;;;;;;;3.30;1.80;;;9.40;97.30;;;;;;6267993;28;20181;-64
2022/04/09 01:54:56;;;;;;;3.23;1.93;;;9.50;97.30;;;;;;6284868;28;20180;-64
2022/04/09 01:57:57;;;;;;;2.40;1.63;;;9.50;97.30;;;;;;6284700;28;20246;-65
2022/04/09 02:01:03;;;;;;;3.30;1.50;;;9.50;97.30;;;;;;6265079;28;20326;-63
2022/04/09 02:04:04;;;;;;;2.17;1.80;;;9.50;97.30;;;;;;6285318;28;20209;-63
2022/04/09 02:07:05;;;;;;;2.33;1.90;;;9.60;97.30;;;;;;6309479;28;20199;-63
2022/04/09 02:10:08;;;;;;;2.20;1.77;;;9.60;97.30;;;;;;6293007;28;20226;-64
2022/04/09 02:13:13;;;;;;;3.03;2.10;;;9.50;97.30;;;;;;6297456;28;20273;-64
2022/04/09 02:16:14;;;;;;;2.73;1.93;;;9.50;97.30;;;;;;6288851;28;20593;-64
2022/04/09 02:19:17;;;;;;;2.90;2.30;;;9.40;97.30;;;;;;6286037;28;20193;-64
2022/04/09 02:22:18;;;;;;;2.20;2.00;;;9.40;97.40;;;;;;6283538;28;20284;-64
2022/04/09 02:25:19;;;;;;;3.07;2.30;;;9.30;97.40;;;;;;6267808;28;20660;-64
2022/04/09 02:28:21;;;;;;;3.70;2.13;;;9.30;97.40;;;;;;6279269;28;20193;-64
2022/04/09 02:31:23;;;;;;;3.40;2.40;;;9.30;97.30;;;;;;6268190;28;20216;-64
2022/04/09 02:34:25;;;;;;;2.53;2.27;;;9.30;97.40;;;;;;6267773;28;20208;-64
2022/04/09 02:37:26;;;;;;;3.43;2.43;;;9.30;97.40;;;;;;6267007;28;20189;-64
2022/04/09 02:40:28;;;;;;;3.83;2.60;;;9.20;97.40;;;;;;6267282;28;20204;-64
2022/04/09 02:43:30;;;;;;;3.07;2.40;;;9.20;97.40;;;;;;6267347;28;20196;-64
2022/04/09 02:46:30;;;;;;;2.83;2.47;;;9.20;97.40;;;;;;6283831;28;20200;-64
2022/04/09 02:49:33;;;;;;;2.80;2.57;;;9.10;97.40;;;;;;6286526;28;20216;-64
2022/04/09 02:52:36;;;;;;;6.67;3.50;;;9.10;97.40;;;;;;6291756;28;20191;-64
2022/04/09 02:55:38;;;;;;;5.20;3.60;;;9.00;97.40;;;;;;6282963;28;20185;-64
2022/04/09 02:58:38;;;;;;;4.27;3.77;;;9.00;97.40;;;;;;6266522;28;20227;-64
2022/04/09 03:01:46;;;;;;;6.40;4.17;;;9.00;97.40;;;;;;6294949;28;20200;-65
2022/04/09 03:04:49;;;;;;;4.40;3.20;;;8.90;97.40;;;;;;6284514;28;20201;-63
2022/04/09 03:07:50;;;;;;;3.67;3.10;;;8.90;97.40;;;;;;6275804;28;20229;-65
2022/04/09 03:10:51;;;;;;;4.70;3.90;;;8.90;97.50;;;;;;6279246;28;20215;-65
2022/04/09 03:13:51;;;;;;;3.90;3.50;;;8.80;97.50;;;;;;6269107;28;20192;-65
2022/04/09 03:16:52;;;;;;;5.73;4.07;;;8.80;97.50;;;;;;6267724;28;20195;-65
2022/04/09 03:19:54;;;;;;;7.80;4.20;;;8.80;97.50;;;;;;6271570;28;20192;-65
2022/04/09 03:22:56;;;;;;;6.47;5.20;;;8.80;97.50;;;;;;6278132;28;20185;-65
2022/04/09 03:26:26;;;;;;;7.40;5.03;;;8.70;97.50;;;;;;6283568;28;20200;-65
2022/04/09 03:29:31;;;;;;;10.33;5.33;;;8.70;97.50;;;;;;6236040;28;20242;-65
2022/04/09 03:32:34;;;;;;;7.57;5.27;;;8.60;97.50;;;;;;6240917;28;20189;-65
2022/04/09 03:35:35;;;;;;;6.60;5.30;;;8.60;97.50;;;;;;6250589;28;20197;-64
2022/04/09 03:38:36;;;;;;;6.00;5.23;;;8.50;97.50;;;;;;6268404;28;20202;-64
2022/04/09 03:41:37;;;;;;;11.43;5.40;;;8.50;97.50;;;;;;6260926;28;20212;-65
2022/04/09 03:44:40;;;;;;;6.87;4.80;;;8.50;97.50;;;;;;6237337;28;20189;-64
2022/04/09 03:47:41;;;;;;;8.90;4.50;;;8.50;97.50;;;;;;6239799;28;20182;-64
2022/04/09 03:50:46;;;;;;;7.63;5.60;;;8.50;97.50;;;;;;6240525;28;20241;-64
2022/04/09 03:53:51;;;;;;;7.70;4.67;;;8.50;97.60;;;;;;6239041;28;20182;-64
2022/04/09 03:56:53;;;;;;;7.53;5.40;;;8.50;97.60;;;;;;6241872;28;20197;-64
2022/04/09 03:59:58;;;;;;;7.70;5.70;;;8.50;97.60;;;;;;6273806;28;20225;-64
2022/04/09 04:03:00;;;;;;;8.10;5.30;;;8.40;97.60;;;;;;6232837;28;20194;-64
2022/04/09 04:06:04;;;;;;;8.57;5.63;;;8.30;97.60;;;;;;6255483;28;20186;-64
2022/04/09 04:09:06;;;;;;;6.67;4.87;;;8.40;97.60;;;;;;6239880;28;20226;-63
2022/04/09 04:12:09;;;;;;;4.43;4.00;;;8.40;97.60;;;;;;6253560;28;20194;-64
2022/04/09 04:15:13;;;;;;;6.87;4.63;;;8.40;97.60;;;;;;6226573;28;20191;-64
2022/04/09 04:18:15;;;;;;;6.10;4.73;;;8.40;97.60;;;;;;6271074;28;20191;-65
2022/04/09 04:21:19;;;;;;;7.23;4.77;;;8.50;97.60;;;;;;6236689;28;20191;-65
2022/04/09 04:24:28;;;;;;;10.57;5.57;;;8.50;97.60;;;;;;6237860;28;20183;-65
2022/04/09 04:27:30;;;;;;;10.10;5.73;;;8.60;97.60;;;;;;6234450;28;20252;-65
2022/04/09 04:30:31;;;;;;;6.80;5.87;;;8.70;97.60;;;;;;6247137;28;20233;-64
2022/04/09 04:33:33;;;;;;;7.83;5.60;;;8.70;97.60;;;;;;6236604;28;20282;-64
2022/04/09 04:36:34;;;;;;;8.70;5.70;;;8.70;97.60;;;;;;6240652;28;20190;-65
2022/04/09 04:39:35;;;;;;;9.07;6.33;;;8.70;97.70;;;;;;6248386;28;20193;-64
2022/04/09 04:42:36;;;;;;;9.20;5.80;;;8.70;97.70;;;;;;6231290;28;20232;-63
2022/04/09 04:45:38;;;;;;;6.70;5.07;;;8.80;97.70;;;;;;6274467;28;20266;-63
2022/04/09 04:48:44;;;;;;;6.33;5.13;;;8.70;97.60;;;;;;6246944;28;20202;-63
2022/04/09 04:51:45;;;;;;;10.13;5.80;;;8.80;97.70;;;;;;6245379;28;20344;-62
2022/04/09 04:54:46;;;;;;;8.40;5.77;;;8.80;97.60;;;;;;6223070;28;20192;-62
2022/04/09 04:57:54;;;;;;;9.30;5.67;;;8.80;97.60;;;;;;6245284;28;20189;-62
2022/04/09 05:01:07;;;;;;;10.07;6.23;;;8.90;97.60;;;;;;6279290;28;20191;-62
2022/04/09 05:04:12;;;;;;;11.27;6.43;;;8.90;97.60;;;;;;6237209;28;20218;-62
2022/04/09 05:07:23;;;;;;;12.83;6.50;;;9.00;97.60;;;;;;6253404;28;20175;-62
2022/04/09 05:10:25;;;;;;;11.57;6.17;;;9.00;97.70;;;;;;6271713;28;20240;-62
2022/04/09 05:13:28;;;;;;;9.40;5.67;;;9.10;97.70;;;;;;6261623;28;20231;-62
2022/04/09 05:16:29;;;;;;;10.57;6.63;;;9.10;97.70;;;;;;6255616;28;20181;-62
2022/04/09 05:19:35;;;;;;;9.07;6.13;;;9.20;97.70;;;;;;6252568;28;20179;-63
2022/04/09 05:22:49;;;;;;;9.80;6.40;;;9.20;97.70;;;;;;6244077;28;20194;-62
2022/04/09 05:25:51;;;;;;;13.50;7.50;;;9.20;97.70;;;;;;6273809;28;20194;-61
2022/04/09 05:28:54;;;;;;;8.53;7.07;;;9.30;97.70;;;;;;6300313;28;20287;-60
2022/04/09 05:31:56;;;;;;;11.90;7.67;;;9.30;97.70;;;;;;6272453;28;20189;-61
2022/04/09 05:34:57;;;;;;;13.73;9.43;;;9.20;97.70;;;;;;6293406;28;20172;-60
2022/04/09 05:37:58;;;;;;;18.37;11.77;;;9.30;97.70;;;;;;6309105;28;20188;-61
2022/04/09 05:41:04;;;;;;;17.80;10.67;;;9.20;97.70;;;;;;6263963;28;20189;-62
2022/04/09 05:44:06;;;;;;;12.67;10.53;;;9.20;97.70;;;;;;6272106;28;20227;-62
2022/04/09 05:47:07;;;;;;;13.27;9.30;;;9.20;97.70;;;;;;6268349;28;20279;-61
2022/04/09 05:50:09;;;;;;;16.80;12.33;;;9.20;97.70;;;;;;6309864;28;20224;-61
2022/04/09 05:53:11;;;;;;;13.83;9.63;;;9.20;97.70;;;;;;6276595;28;20197;-61
2022/04/09 05:56:12;;;;;;;14.00;8.90;;;9.30;97.70;;;;;;6283455;28;20234;-62
2022/04/09 05:59:16;;;;;;;11.83;8.43;;;9.30;97.70;;;;;;6284029;28;20247;-62
2022/04/09 06:02:17;;;;;;;15.97;10.77;;;9.30;97.70;;;;;;6284920;28;20196;-62
2022/04/09 06:05:18;;;;;;;11.13;7.83;;;9.30;97.70;;;;;;6267877;28;20225;-62
2022/04/09 06:08:23;;;;;;;8.13;6.17;;;9.20;97.70;;;;;;6291362;28;20389;-61
2022/04/09 06:11:24;;;;;;;10.03;7.27;;;9.20;97.70;;;;;;6290313;28;20246;-64
2022/04/09 06:14:28;;;;;;;6.23;5.57;;;9.20;97.70;;;;;;6292752;28;20192;-63
2022/04/09 06:17:33;;;;;;;2.83;2.37;;;9.20;97.70;;;;;;6276513;28;20185;-62
2022/04/09 06:20:34;;;;;;;1.93;1.70;;;9.30;97.70;;;;;;6292900;28;20192;-63
2022/04/09 06:23:38;;;;;;;1.77;1.17;;;9.00;97.70;;;;;;6283838;28;20196;-50
2022/04/09 06:26:39;;;;;;;1.93;1.50;;;9.00;97.70;;;;;;6266651;28;20218;-51
2022/04/09 06:29:39;;;;;;;1.37;0.97;;;9.00;97.70;;;;;;6267523;28;20228;-49
2022/04/09 06:32:40;;;;;;;1.70;1.30;;;9.00;97.70;;;;;;6267750;28;20234;-50
2022/04/09 06:35:43;;;;;;;2.57;1.07;;;9.00;97.70;;;;;;6284308;28;20181;-53
2022/04/09 06:38:50;;;;;;;3.33;1.03;;;9.00;97.70;;;;;;6283428;28;20200;-48
2022/04/09 06:42:00;;;;;;;1.30;1.10;;;9.10;97.70;;;;;;6285701;28;20182;-51
2022/04/09 06:45:21;;;;;;;3.93;2.00;;;9.10;97.70;;;;;;6271398;28;20293;-50
2022/04/09 06:48:48;;;;;;;5.70;2.20;;;9.10;97.70;;;;;;6274706;28;20199;-55
2022/04/09 06:52:07;;;;;;;1.40;1.23;;;9.00;97.70;;;;;;6304765;28;20220;-49
2022/04/09 06:55:26;;;;;;;1.47;1.37;;;8.90;97.70;;;;;;6272144;28;20248;-48
2022/04/09 06:58:27;;;;;;;4.17;2.40;;;8.80;97.70;;;;;;6255070;28;20189;-53
2022/04/09 07:01:28;;;;;;;1.97;1.70;;;8.80;97.70;;;;;;6267955;28;20183;-51
2022/04/09 07:04:30;;;;;;;1.97;1.20;;;8.80;97.70;;;;;;6292177;28;20189;-51
2022/04/09 07:07:31;;;;;;;1.60;0.60;;;8.70;97.70;;;;;;6280366;28;20224;-49
2022/04/09 07:10:32;;;;;;;0.53;0.53;;;8.50;97.70;;;;;;6295234;28;20209;-51
2022/04/09 07:13:33;;;;;;;0.43;0.43;;;8.30;97.70;;;;;;6288510;28;20244;-50
2022/04/09 07:16:33;;;;;;;0.73;0.63;;;8.10;97.70;;;;;;6277225;28;20184;-50
2022/04/09 07:19:34;;;;;;;0.40;0.40;;;7.60;97.70;;;;;;6285378;28;20283;-52
2022/04/09 07:22:37;;;;;;;1.23;0.67;;;7.20;97.70;;;;;;6270863;28;20206;-53
2022/04/09 07:25:37;;;;;;;0.50;0.50;;;7.00;97.70;;;;;;6282523;28;20185;-59
2022/04/09 07:28:38;;;;;;;0.20;0.20;;;6.90;97.70;;;;;;6282147;28;20264;-59
2022/04/09 07:31:39;;;;;;;0.20;0.20;;;6.90;97.70;;;;;;6282835;28;20204;-59
2022/04/09 07:34:40;;;;;;;0.20;0.20;;;6.80;97.70;;;;;;6281101;28;20205;-58
2022/04/09 07:37:46;;;;;;;0.30;0.30;;;6.80;97.70;;;;;;6251340;28;20177;-58
2022/04/09 07:40:47;;;;;;;0.20;0.20;;;6.70;97.70;;;;;;6290253;28;20191;-58
2022/04/09 07:43:47;;;;;;;0.33;0.33;;;6.70;97.70;;;;;;6290219;28;20188;-57
2022/04/09 07:46:50;;;;;;;0.30;0.30;;;6.60;97.70;;;;;;6273193;28;20210;-56
2022/04/09 07:49:50;;;;;;;0.30;0.30;;;6.60;97.70;;;;;;6304563;28;20634;-56
2022/04/09 07:52:53;;;;;;;0.20;0.20;;;6.50;97.70;;;;;;6265931;28;20189;-55
2022/04/09 07:55:54;;;;;;;0.47;0.47;;;6.40;97.60;;;;;;6279785;28;20182;-56
2022/04/09 07:58:54;;;;;;;0.67;0.50;;;6.40;97.70;;;;;;6266633;28;20287;-56
2022/04/09 08:01:55;;;;;;;0.50;0.50;;;6.40;97.60;;;;;;6262009;28;20236;-55
2022/04/09 08:04:56;;;;;;;1.87;0.63;;;6.30;97.70;;;;;;6298626;28;20184;-55
2022/04/09 08:07:57;;;;;;;1.07;0.27;;;6.30;97.70;;;;;;6287841;28;20188;-54
2022/04/09 08:10:58;;;;;;;1.40;0.30;;;6.20;97.60;;;;;;6293701;28;20219;-53
2022/04/09 08:14:00;;;;;;;0.57;0.40;;;6.00;97.60;;;;;;6287651;28;20202;-55
2022/04/09 08:17:01;;;;;;;0.30;0.30;;;6.00;97.60;;;;;;6278622;28;20208;-55
2022/04/09 08:20:02;;;;;;;0.60;0.60;;;5.90;97.60;;;;;;6279863;28;20213;-56
2022/04/09 08:23:03;;;;;;;0.43;0.43;;;5.90;97.60;;;;;;6275817;28;20203;-54
2022/04/09 08:26:04;;;;;;;0.33;0.33;;;5.80;97.60;;;;;;6286699;28;20192;-56
2022/04/09 08:29:05;;;;;;;0.30;0.30;;;5.80;97.60;;;;;;6286753;28;20248;-54
2022/04/09 08:32:07;;;;;;;0.47;0.47;;;5.80;97.60;;;;;;6283429;28;20213;-53
2022/04/09 08:35:09;;;;;;;0.70;0.70;;;5.70;97.60;;;;;;6262309;28;20188;-55
2022/04/09 08:38:10;;;;;;;0.33;0.33;;;5.80;97.50;;;;;;6273081;28;20195;-53
2022/04/09 08:41:14;;;;;;;0.50;0.50;;;5.80;97.60;;;;;;6276237;28;20296;-56
2022/04/09 08:44:17;;;;;;;0.30;0.30;;;5.80;97.50;;;;;;6302395;28;20275;-55
2022/04/09 08:47:18;;;;;;;0.20;0.20;;;5.70;97.50;;;;;;6283948;28;20350;-50
2022/04/09 08:50:20;;;;;;;0.20;0.20;;;5.70;97.50;;;;;;6291985;28;20219;-50
2022/04/09 08:53:21;;;;;;;0.60;0.60;;;5.80;97.50;;;;;;6286559;28;20185;-56
2022/04/09 08:56:22;;;;;;;0.50;0.50;;;5.60;97.50;;;;;;6283228;28;20275;-55
2022/04/09 08:59:25;;;;;;;0.43;0.40;;;5.40;97.50;;;;;;6265317;28;20188;-52
2022/04/09 09:02:28;;;;;;;0.40;0.40;;;5.50;97.50;;;;;;6295749;28;20186;-56
2022/04/09 09:05:37;;;;;;;0.30;0.30;;;5.40;97.50;;;;;;6274193;28;20189;-51
2022/04/09 09:08:41;;;;;;;1.30;0.30;;;5.40;97.50;;;;;;6306854;28;20184;-53
2022/04/09 09:11:48;;;;;;;0.30;0.30;;;5.30;97.50;;;;;;6302345;28;20213;-53
2022/04/09 09:14:51;;;;;;;0.30;0.30;;;5.40;97.50;;;;;;6254328;28;20254;-53
2022/04/09 09:17:56;;;;;;;1.00;0.83;;;5.50;97.50;;;;;;6279518;28;20189;-54
2022/04/09 09:20:59;;;;;;;0.77;0.50;;;5.70;97.50;;;;;;6278796;28;20215;-50
2022/04/09 09:24:06;;;;;;;0.43;0.40;;;5.70;97.50;;;;;;6278356;28;20193;-53
2022/04/09 09:27:08;;;;;;;0.20;0.20;;;5.80;97.50;;;;;;6278302;28;20551;-51
2022/04/09 09:30:13;;;;;;;0.20;0.20;;;5.60;97.50;;;;;;6278455;28;20260;-51
2022/04/09 09:33:14;;;;;;;0.30;0.30;;;5.50;97.50;;;;;;6274475;28;20242;-52
2022/04/09 09:36:15;;;;;;;3.73;0.33;;;5.50;97.50;;;;;;6266799;28;20189;-51
2022/04/09 09:39:18;;;;;;;1.03;0.37;;;5.30;97.40;;;;;;6266775;28;20195;-51
2022/04/09 09:42:22;;;;;;;0.37;0.37;;;5.30;97.50;;;;;;6297613;28;20184;-54
2022/04/09 09:45:39;;;;;;;0.30;0.30;;;5.20;97.40;;;;;;6287002;28;20193;-52
2022/04/09 09:48:40;;;;;;;0.30;0.30;;;5.30;97.50;;;;;;6264896;28;20266;-51
2022/04/09 09:51:42;;;;;;;0.20;0.20;;;5.30;97.40;;;;;;6265760;28;20208;-50
2022/04/09 09:55:10;;;;;;;0.20;0.20;;;5.10;97.40;;;;;;6282760;28;20185;-55
2022/04/09 09:58:15;;;;;;;0.40;0.40;;;4.80;97.40;;;;;;6294385;28;20187;-52
2022/04/09 10:01:16;;;;;;;0.30;0.30;;;4.90;97.40;;;;;;6307220;28;20234;-53
2022/04/09 10:04:17;;;;;;;0.60;0.40;;;5.00;97.40;;;;;;6307687;28;20200;-53
2022/04/09 10:07:19;;;;;;;0.30;0.30;;;5.10;97.50;;;;;;6306473;28;20314;-53
2022/04/09 10:10:22;;;;;;;0.30;0.30;;;5.20;97.50;;;;;;6310843;28;20238;-50
2022/04/09 10:13:24;;;;;;;0.40;0.40;;;5.10;97.40;;;;;;6268948;28;20193;-49
2022/04/09 10:16:27;;;;;;;1.63;0.80;;;5.10;97.50;;;;;;6282079;28;20181;-50
2022/04/09 10:19:29;;;;;;;0.60;0.60;;;5.10;97.50;;;;;;6280776;28;20193;-49
2022/04/09 10:22:35;;;;;;;0.77;0.50;;;5.30;97.50;;;;;;6281904;28;20208;-49
2022/04/09 10:25:40;;;;;;;0.53;0.53;;;5.30;97.50;;;;;;6305588;28;20211;-49
2022/04/09 10:28:41;;;;;;;0.43;0.40;;;5.40;97.50;;;;;;6303405;28;20315;-49
2022/04/09 10:31:43;;;;;;;0.33;0.33;;;5.30;97.50;;;;;;6264381;28;20216;-50
2022/04/09 10:34:50;;;;;;;0.43;0.43;;;5.40;97.40;;;;;;6264844;28;20220;-51
2022/04/09 10:38:09;;;;;;;0.40;0.40;;;5.30;97.50;;;;;;6281639;28;20205;-51
2022/04/09 10:41:10;;;;;;;0.50;0.50;;;5.30;97.40;;;;;;6280646;28;20200;-50
2022/04/09 10:44:10;;;;;;;1.67;0.40;;;5.60;97.50;;;;;;6283575;28;20215;-52
2022/04/09 10:47:14;;;;;;;0.70;0.70;;;5.90;97.50;;;;;;6279213;28;20198;-49
2022/04/09 10:50:15;;;;;;;1.17;0.70;;;6.10;97.50;;;;;;6309567;28;20352;-55
2022/04/09 10:53:16;;;;;;;1.27;0.97;;;5.80;97.50;;;;;;6271192;28;20196;-52
2022/04/09 10:56:25;;;;;;;1.60;1.00;;;5.90;97.50;;;;;;6291553;28;20188;-54
2022/04/09 10:59:29;;;;;;;1.73;0.80;;;6.00;97.50;;;;;;6283291;28;20243;-49
2022/04/09 11:02:30;;;;;;;0.73;0.70;;;5.90;97.50;;;;;;6280218;28;20211;-50
2022/04/09 11:05:33;;;;;;;0.60;0.60;;;6.00;97.40;;;;;;6263984;28;20204;-51
2022/04/09 11:08:34;;;;;;;1.13;0.93;;;6.20;97.50;;;;;;6275751;28;20255;-50
2022/04/09 11:11:34;;;;;;;0.70;0.70;;;6.30;97.50;;;;;;6266490;28;20228;-55
2022/04/09 11:15:03;;;;;;;0.73;0.73;;;6.60;97.50;;;;;;6272623;28;20189;-50
2022/04/09 11:18:04;;;;;;;1.50;1.00;;;6.70;97.50;;;;;;6301359;28;20203;-53
2022/04/09 11:21:12;;;;;;;1.73;0.70;;;6.80;97.50;;;;;;6271184;28;20184;-49
2022/04/09 11:24:13;;;;;;;0.57;0.57;;;7.00;97.50;;;;;;6282118;28;20220;-51
2022/04/09 11:27:14;;;;;;;0.80;0.80;;;7.10;97.50;;;;;;6288931;28;20188;-50
2022/04/09 11:30:16;;;;;;;0.70;0.70;;;7.20;97.50;;;;;;6288299;28;20243;-52
2022/04/09 11:33:16;;;;;;;0.70;0.70;;;6.50;97.50;;;;;;6279282;28;20322;-51
2022/04/09 11:36:21;;;;;;;0.70;0.70;;;6.30;97.50;;;;;;6263264;28;20192;-51
2022/04/09 11:39:22;;;;;;;0.80;0.80;;;6.40;97.50;;;;;;6264288;28;20326;-51
2022/04/09 11:42:23;;;;;;;0.70;0.70;;;6.30;97.50;;;;;;6270906;28;20196;-51
2022/04/09 11:45:27;;;;;;;3.33;0.87;;;6.40;97.50;;;;;;6262745;28;20239;-52
2022/04/09 11:48:28;;;;;;;1.20;1.10;;;6.60;97.50;;;;;;6279979;28;20200;-52
2022/04/09 11:51:29;;;;;;;1.13;0.93;;;6.70;97.50;;;;;;6262424;28;20213;-50
2022/04/09 11:54:34;;;;;;;1.30;0.93;;;6.90;97.50;;;;;;6280025;28;20181;-49
2022/04/09 11:57:39;;;;;;;1.50;1.07;;;7.00;97.50;;;;;;6304092;28;20184;-53
2022/04/09 12:00:42;;;;;;;1.10;1.00;;;7.10;97.50;;;;;;6305552;28;20210;-50
2022/04/09 12:03:51;;;;;;;1.33;1.03;;;7.30;97.50;;;;;;6304793;28;20201;-48
2022/04/09 12:06:52;;;;;;;0.83;0.73;;;7.30;97.50;;;;;;6278557;28;20185;-52
2022/04/09 12:09:54;;;;;;;1.30;1.10;;;7.40;97.50;;;;;;6285260;28;20318;-51
2022/04/09 12:13:02;;;;;;;1.13;1.03;;;7.60;97.50;;;;;;6276267;28;20191;-54
2022/04/09 12:16:18;;;;;;;2.03;1.30;;;6.90;97.50;;;;;;6286502;28;20215;-55
2022/04/09 12:19:29;;;;;;;1.30;1.20;;;6.50;97.50;;;;;;6285401;28;20201;-54
2022/04/09 12:22:30;;;;;;;1.10;0.87;;;6.50;97.50;;;;;;6282181;28;20189;-54
2022/04/09 12:25:35;;;;;;;1.30;1.20;;;6.70;97.50;;;;;;6304596;28;20245;-50
2022/04/09 12:28:36;;;;;;;1.53;1.10;;;6.80;97.50;;;;;;6274510;28;20233;-49
2022/04/09 12:31:37;;;;;;;1.47;1.30;;;7.00;97.50;;;;;;6261614;28;20365;-51
2022/04/09 12:34:51;;;;;;;1.30;1.20;;;7.10;97.50;;;;;;6262322;28;20215;-49
2022/04/09 12:37:52;;;;;;;1.33;1.23;;;6.90;97.50;;;;;;6278061;28;20208;-50
2022/04/09 12:41:01;;;;;;;2.10;1.43;;;6.90;97.50;;;;;;6261431;28;20276;-50
2022/04/09 12:44:25;;;;;;;1.30;1.20;;;6.50;97.50;;;;;;6285845;28;20256;-50
2022/04/09 12:47:26;;;;;;;1.00;0.90;;;6.00;97.50;;;;;;6296513;28;20186;-51
2022/04/09 12:50:30;;;;;;;1.23;1.07;;;6.30;97.50;;;;;;6278487;28;20223;-51
2022/04/09 12:53:31;;;;;;;1.40;1.30;;;6.40;97.50;;;;;;6269261;28;20189;-52
2022/04/09 12:56:31;;;;;;;1.30;1.20;;;6.50;97.50;;;;;;6277510;28;20192;-49
2022/04/09 12:59:33;;;;;;;1.40;1.30;;;6.80;97.50;;;;;;6285710;28;20286;-49
2022/04/09 13:02:36;;;;;;;1.40;1.30;;;6.70;97.50;;;;;;6271283;28;20195;-51
2022/04/09 13:05:37;;;;;;;1.30;1.20;;;6.70;97.50;;;;;;6278379;28;20200;-53
2022/04/09 13:08:37;;;;;;;1.73;1.50;;;6.90;97.50;;;;;;6278045;28;20187;-49
2022/04/09 13:11:38;;;;;;;1.43;1.33;;;6.80;97.50;;;;;;6341298;28;20208;-54
2022/04/09 13:14:39;;;;;;;1.43;1.27;;;6.40;97.50;;;;;;6266727;28;20185;-50
2022/04/09 13:17:40;;;;;;;2.97;2.20;;;6.60;97.50;;;;;;6283078;28;20242;-49
2022/04/09 13:20:43;;;;;;;1.70;1.60;;;6.70;97.50;;;;;;6283744;28;20196;-52
2022/04/09 13:23:44;;;;;;;2.17;1.90;;;6.70;97.50;;;;;;6300713;28;20177;-51
2022/04/09 13:26:45;;;;;;;1.50;1.40;;;7.00;97.50;;;;;;6273788;28;20223;-54
2022/04/09 13:29:46;;;;;;;1.77;1.67;;;7.10;97.50;;;;;;6290348;28;20227;-52
2022/04/09 13:32:46;;;;;;;1.60;1.50;;;6.80;97.50;;;;;;6274250;28;20189;-52
2022/04/09 13:35:47;;;;;;;1.80;1.70;;;7.20;97.50;;;;;;6266540;28;20200;-52
2022/04/09 13:38:48;;;;;;;2.47;1.40;;;7.20;97.50;;;;;;6266782;28;20193;-55
2022/04/09 13:41:49;;;;;;;1.60;1.50;;;7.00;97.50;;;;;;6283026;28;20201;-55
2022/04/09 13:44:49;;;;;;;1.50;1.33;;;6.90;97.50;;;;;;6273912;28;20211;-52
2022/04/09 13:47:52;;;;;;;1.80;1.70;;;6.80;97.40;;;;;;6281746;28;20203;-55
2022/04/09 13:50:53;;;;;;;1.50;1.40;;;6.30;97.40;;;;;;6298295;28;20211;-52
2022/04/09 13:53:55;;;;;;;1.77;1.40;;;6.20;97.50;;;;;;6265345;28;20192;-53
2022/04/09 13:56:56;;;;;;;1.50;1.40;;;5.90;97.40;;;;;;6272381;28;20212;-51
2022/04/09 13:59:57;;;;;;;1.37;1.20;;;5.90;97.40;;;;;;6281801;28;20181;-51
2022/04/09 14:02:58;;;;;;;1.13;1.03;;;6.00;97.40;;;;;;6279219;28;20193;-54
2022/04/09 14:05:59;;;;;;;1.53;1.37;;;6.20;97.50;;;;;;6254416;28;20191;-52
2022/04/09 14:09:00;;;;;;;1.30;1.13;;;6.20;97.50;;;;;;6299651;28;20209;-52
2022/04/09 14:12:02;;;;;;;2.13;1.40;;;5.80;97.50;;;;;;6285789;28;20199;-50
2022/04/09 14:15:03;;;;;;;1.30;1.20;;;6.00;97.50;;;;;;6264790;28;20193;-52
2022/04/09 14:18:04;;;;;;;1.37;1.27;;;6.00;97.40;;;;;;6280526;28;20335;-50
2022/04/09 14:21:05;;;;;;;1.20;1.10;;;6.20;97.40;;;;;;6264032;28;20188;-50
2022/04/09 14:24:06;;;;;;;1.87;1.20;;;6.30;97.20;;;;;;6263801;28;20199;-52
2022/04/09 14:27:07;;;;;;;1.20;1.10;;;6.30;97.20;;;;;;6264307;28;20197;-50
2022/04/09 14:30:09;;;;;;;1.10;1.00;;;6.30;97.00;;;;;;6263215;28;20285;-55
2022/04/09 14:33:10;;;;;;;0.80;0.80;;;6.50;96.90;;;;;;6264404;28;20216;-53
2022/04/09 14:36:11;;;;;;;1.33;1.23;;;6.40;97.10;;;;;;6265244;28;20185;-49
2022/04/09 14:39:12;;;;;;;2.47;1.17;;;6.50;97.30;;;;;;6273551;28;20181;-50
2022/04/09 14:42:13;;;;;;;1.00;1.00;;;6.40;96.90;;;;;;6281179;28;20215;-50
2022/04/09 14:45:15;;;;;;;0.93;0.87;;;6.60;97.10;;;;;;6287391;28;20192;-52
2022/04/09 14:48:16;;;;;;;1.27;1.00;;;6.20;96.40;;;;;;6288942;28;20200;-51
2022/04/09 14:51:17;;;;;;;1.13;1.03;;;6.30;96.50;;;;;;6277057;28;20311;-53
2022/04/09 14:54:17;;;;;;;1.17;0.90;;;6.30;96.60;;;;;;6263950;28;20170;-53
2022/04/09 14:57:18;;;;;;;0.90;0.90;;;6.50;96.90;;;;;;6276527;28;20247;-53
2022/04/09 15:00:19;;;;;;;0.80;0.80;;;6.50;97.00;;;;;;6267110;28;20196;-50
2022/04/09 15:03:20;;;;;;;0.80;0.70;;;6.50;96.70;;;;;;6263850;28;20200;-50
2022/04/09 15:06:21;;;;;;;1.37;1.20;;;6.30;96.30;;;;;;6279120;28;20193;-54
2022/04/09 15:09:22;;;;;;;1.33;0.90;;;6.30;96.20;;;;;;6304413;28;20179;-54
2022/04/09 15:12:24;;;;;;;0.60;0.60;;;6.30;96.30;;;;;;6288035;28;20264;-54
2022/04/09 15:15:24;;;;;;;0.93;0.90;;;6.20;95.40;;;;;;6266757;28;20197;-55
2022/04/09 15:18:25;;;;;;;1.87;0.80;;;6.30;96.50;;;;;;6269276;28;20206;-53
2022/04/09 15:21:26;;;;;;;0.83;0.83;;;6.30;95.90;;;;;;6289441;28;20203;-54
2022/04/09 15:24:27;;;;;;;1.33;0.80;;;6.40;96.60;;;;;;6305250;28;20196;-53
2022/04/09 15:27:28;;;;;;;0.70;0.70;;;6.30;95.80;;;;;;6282050;28;20204;-49
2022/04/09 15:30:28;;;;;;;0.60;0.60;;;6.40;96.40;;;;;;6263283;28;20236;-51
2022/04/09 15:33:29;;;;;;;1.20;1.10;;;6.40;96.20;;;;;;6264270;28;20188;-50
2022/04/09 15:36:31;;;;;;;1.17;0.83;;;6.30;95.60;;;;;;6278287;28;20192;-50
2022/04/09 15:39:32;;;;;;;1.20;1.00;;;6.40;96.20;;;;;;6304188;28;20196;-55
2022/04/09 15:42:33;;;;;;;1.20;0.67;;;6.40;95.70;;;;;;6267165;28;20200;-53
2022/04/09 15:45:34;;;;;;;1.67;1.00;;;6.50;96.20;;;;;;6263541;28;20208;-53
2022/04/09 15:48:35;;;;;;;1.23;0.77;;;6.40;96.30;;;;;;6265991;28;20205;-51
2022/04/09 15:51:36;;;;;;;0.70;0.67;;;6.30;96.30;;;;;;6263795;28;20216;-53
2022/04/09 15:54:42;;;;;;;0.70;0.67;;;6.20;95.40;;;;;;6262624;28;20246;-54
2022/04/09 15:57:42;;;;;;;0.50;0.50;;;6.30;96.00;;;;;;6278999;28;20186;-55
2022/04/09 16:00:44;;;;;;;1.00;0.80;;;6.30;95.60;;;;;;6263188;28;20192;-52
2022/04/09 16:03:45;;;;;;;1.13;0.90;;;6.40;96.00;;;;;;6262590;28;20202;-55